CheckWX is a tool to help pilots better visualize weather data.  It is not intended as a substitute for an official pre-flight weather briefing.

16:13:56 UTC

VOBM TAF
Belgaum Airport
Belgaum, India
TAF VOBM 180800Z 1809/1818 11010KT 8000 NSC

Mar-18@
09:00 UTC

Mar-18 @ 09:00 UTC

Mar-18@
18:00 UTC

Mar-18 @ 18:00 UTC

TAF VOBM 180800Z 1809/1818 11010KT 8000 NSC
Wind
  • 110° at 10 KTS
Cloud Levels
  • No significant clouds